Time;durP1;ratioP1;P1;durP2;ratioP2;P2;SDS_P1;SDS_P2;PMS_P1;PMS_P2;Temp;Humidity;BMP_temperature;BMP_pressure;BME280_temperature;BME280_humidity;BME280_pressure;Samples;Min_cycle;Max_cycle;Signal;HPM_P1;HPM_P2
2021/11/11 00:01:53;;;;;;;30.10;15.55;;;;;;;10.30;78.17;102503.09;5044733;28;20049;-73
2021/11/11 00:04:20;;;;;;;30.38;15.77;;;;;;;10.30;77.67;102502.16;5044669;28;20044;-73
2021/11/11 00:06:47;;;;;;;33.03;15.82;;;;;;;10.31;77.51;102504.84;5045123;28;20145;-73
2021/11/11 00:09:13;;;;;;;31.25;16.52;;;;;;;10.31;77.74;102504.84;5043983;28;20055;-75
2021/11/11 00:11:39;;;;;;;34.72;14.77;;;;;;;10.29;77.68;102498.63;5035867;28;20053;-76
2021/11/11 00:14:05;;;;;;;34.45;16.45;;;;;;;10.29;78.67;102508.28;5044383;28;20068;-75
2021/11/11 00:16:30;;;;;;;32.08;15.80;;;;;;;10.30;78.11;102515.28;5045835;28;20029;-75
2021/11/11 00:18:55;;;;;;;31.40;16.10;;;;;;;10.29;78.19;102509.16;5044271;28;20029;-75
2021/11/11 00:21:21;;;;;;;32.70;15.50;;;;;;;10.27;78.30;102500.34;5044968;28;20045;-73
2021/11/11 00:23:47;;;;;;;35.47;16.17;;;;;;;10.28;78.74;102514.34;5043001;28;20037;-74
2021/11/11 00:26:12;;;;;;;31.42;15.63;;;;;;;10.29;78.41;102503.91;5045107;28;20041;-74
2021/11/11 00:28:38;;;;;;;32.85;16.13;;;;;;;10.30;78.73;102504.78;5041945;28;20038;-74
2021/11/11 00:31:04;;;;;;;35.30;17.13;;;;;;;10.28;78.89;102499.50;5041379;28;20083;-73
2021/11/11 00:33:29;;;;;;;34.75;16.95;;;;;;;10.28;79.15;102495.97;5041688;28;20018;-74
2021/11/11 00:35:54;;;;;;;32.13;16.25;;;;;;;10.29;79.46;102498.63;5044476;28;20504;-74
2021/11/11 00:38:20;;;;;;;37.70;17.50;;;;;;;10.31;78.17;102502.22;5044683;28;20053;-74
2021/11/11 00:40:46;;;;;;;37.00;17.90;;;;;;;10.32;78.12;102506.66;5042237;28;20021;-75
2021/11/11 00:43:11;;;;;;;30.27;16.48;;;;;;;10.31;78.04;102501.34;5044253;28;20053;-73
2021/11/11 00:45:38;;;;;;;31.77;16.65;;;;;;;10.31;78.23;102515.38;5045104;28;20029;-74
2021/11/11 00:48:07;;;;;;;37.90;17.38;;;;;;;10.30;78.65;102513.59;5043883;28;20099;-73
2021/11/11 00:50:34;;;;;;;43.85;17.48;;;;;;;10.31;78.31;102510.09;5043620;28;20017;-73
2021/11/11 00:53:00;;;;;;;32.72;16.48;;;;;;;10.28;78.48;102506.47;5044225;28;20057;-73
2021/11/11 00:55:25;;;;;;;30.38;16.80;;;;;;;10.27;78.66;102516.09;5043677;28;20032;-74
2021/11/11 00:57:51;;;;;;;34.72;16.25;;;;;;;10.26;78.31;102508.19;5042524;28;20112;-74
2021/11/11 01:00:18;;;;;;;36.72;18.45;;;;;;;10.27;79.16;102516.09;5043488;28;20076;-74
2021/11/11 01:02:46;;;;;;;32.35;16.90;;;;;;;10.28;79.55;102519.59;5043617;28;20025;-74
2021/11/11 01:05:12;;;;;;;31.50;16.80;;;;;;;10.26;79.06;102522.19;5043080;28;20041;-74
2021/11/11 01:07:38;;;;;;;35.08;18.15;;;;;;;10.22;79.24;102525.59;5044003;28;20037;-74
2021/11/11 01:10:06;;;;;;;31.73;17.90;;;;;;;10.20;79.94;102522.03;5042780;28;20409;-74
2021/11/11 01:12:31;;;;;;;38.42;17.63;;;;;;;10.21;80.61;102509.78;5044219;28;20374;-75
2021/11/11 01:14:57;;;;;;;40.55;17.13;;;;;;;10.20;80.12;102508.03;5043841;28;20036;-74
2021/11/11 01:17:22;;;;;;;37.28;18.20;;;;;;;10.22;80.77;102507.19;5051913;28;20020;-74
2021/11/11 01:19:48;;;;;;;45.80;18.67;;;;;;;10.22;80.72;102501.06;5042622;28;20844;-74
2021/11/11 01:22:14;;;;;;;42.47;19.05;;;;;;;10.23;79.86;102495.84;5044306;28;20022;-74
2021/11/11 01:24:39;;;;;;;38.45;17.67;;;;;;;10.24;79.93;102502.00;5042781;28;20513;-73
2021/11/11 01:27:04;;;;;;;42.42;18.83;;;;;;;10.25;80.10;102490.66;5041427;28;20038;-74
2021/11/11 01:29:30;;;;;;;36.30;17.90;;;;;;;10.24;80.15;102502.88;5043542;28;20037;-74
2021/11/11 01:31:56;;;;;;;38.83;18.40;;;;;;;10.24;80.96;102492.38;5043174;28;20037;-72
2021/11/11 01:34:26;;;;;;;34.42;17.60;;;;;;;10.23;81.61;102485.34;5042529;28;20029;-73
2021/11/11 01:36:51;;;;;;;35.28;18.05;;;;;;;10.24;81.46;102479.22;5043690;28;20033;-74
2021/11/11 01:39:17;;;;;;;39.17;18.13;;;;;;;10.25;81.79;102485.41;5042331;28;20113;-74
2021/11/11 01:41:44;;;;;;;41.17;18.77;;;;;;;10.21;81.25;102479.16;5043394;28;20037;-74
2021/11/11 01:44:10;;;;;;;37.05;17.63;;;;;;;10.18;81.20;102478.19;5036467;28;20041;-74
2021/11/11 01:46:35;;;;;;;39.58;18.40;;;;;;;10.17;81.38;102473.78;5043396;28;20034;-74
2021/11/11 01:49:00;;;;;;;37.42;18.60;;;;;;;10.13;81.62;102465.84;5038544;28;20060;-75
2021/11/11 01:51:26;;;;;;;41.35;19.17;;;;;;;10.11;81.59;102467.53;5043418;28;20038;-74
2021/11/11 01:53:51;;;;;;;45.72;19.20;;;;;;;10.13;81.21;102465.84;5043213;28;20366;-75
2021/11/11 01:56:19;;;;;;;36.03;19.60;;;;;;;10.10;80.60;102467.50;5043434;28;20112;-74
2021/11/11 01:58:45;;;;;;;38.10;19.75;;;;;;;10.13;81.26;102462.31;5040861;28;20029;-75
2021/11/11 02:01:11;;;;;;;43.42;19.45;;;;;;;10.10;81.05;102459.63;5043196;28;20026;-75
2021/11/11 02:03:36;;;;;;;44.33;20.52;;;;;;;10.10;80.91;102459.63;5043305;28;20096;-75
2021/11/11 02:06:01;;;;;;;44.10;19.90;;;;;;;10.12;80.79;102466.66;5043214;28;20033;-75
2021/11/11 02:08:27;;;;;;;43.42;19.90;;;;;;;10.14;80.61;102471.97;5042989;28;20097;-74
2021/11/11 02:10:52;;;;;;;43.63;19.20;;;;;;;10.17;80.63;102461.56;5041632;28;20034;-73
2021/11/11 02:13:18;;;;;;;38.70;18.55;;;;;;;10.21;80.67;102462.50;5043377;28;20029;-74
2021/11/11 02:15:44;;;;;;;41.00;20.27;;;;;;;10.21;81.35;102452.91;5043381;28;20126;-74
2021/11/11 02:18:10;;;;;;;36.67;19.63;;;;;;;10.21;80.51;102450.28;5043002;28;20021;-75
2021/11/11 02:20:38;;;;;;;40.47;19.77;;;;;;;10.23;80.81;102456.44;5041754;28;20057;-74
2021/11/11 02:23:07;;;;;;;39.30;19.43;;;;;;;10.22;81.09;102457.28;5043395;28;20034;-74
2021/11/11 02:25:33;;;;;;;39.63;19.67;;;;;;;10.18;80.64;102457.19;5041810;28;20041;-73
2021/11/11 02:28:02;;;;;;;41.15;19.63;;;;;;;10.17;81.10;102460.66;5040900;28;20317;-74
2021/11/11 02:30:29;;;;;;;40.13;20.60;;;;;;;10.18;81.26;102460.69;5041517;28;20026;-75
2021/11/11 02:32:55;;;;;;;39.72;19.77;;;;;;;10.19;81.24;102454.59;5042024;28;20032;-74
2021/11/11 02:35:21;;;;;;;37.05;18.75;;;;;;;10.22;81.08;102452.03;5042385;28;20026;-73
2021/11/11 02:37:47;;;;;;;36.85;19.58;;;;;;;10.23;81.52;102451.19;5055527;28;20049;-73
2021/11/11 02:40:20;;;;;;;42.63;18.55;;;;;;;10.23;80.14;102450.31;5040861;28;20075;-75
2021/11/11 02:42:46;;;;;;;38.25;18.60;;;;;;;10.23;80.87;102447.69;5042627;28;20080;-74
2021/11/11 02:45:15;;;;;;;41.45;19.48;;;;;;;10.22;80.83;102445.91;5042651;28;20038;-74
2021/11/11 02:47:41;;;;;;;38.15;19.13;;;;;;;10.22;80.22;102440.66;5046827;28;20112;-75
2021/11/11 02:50:07;;;;;;;35.53;19.38;;;;;;;10.21;79.85;102438.84;5044450;28;20030;-74
2021/11/11 02:52:33;;;;;;;36.28;18.48;;;;;;;10.20;80.12;102442.34;5046507;28;20029;-74
2021/11/11 02:54:59;;;;;;;39.22;18.77;;;;;;;10.21;79.95;102446.72;5046301;28;20038;-75
2021/11/11 02:57:27;;;;;;;35.80;18.48;;;;;;;10.21;80.14;102446.72;5046100;28;20044;-76
2021/11/11 02:59:55;;;;;;;37.50;18.45;;;;;;;10.23;79.50;102448.56;5046035;28;20044;-75
2021/11/11 03:02:31;;;;;;;33.97;17.25;;;;;;;10.24;79.06;102459.97;5045818;28;20036;-75
2021/11/11 03:04:59;;;;;;;29.13;16.98;;;;;;;10.22;79.57;102449.41;5045348;28;20040;-73
2021/11/11 03:07:25;;;;;;;34.53;16.80;;;;;;;10.20;79.29;102455.47;5046027;28;20028;-74
2021/11/11 03:09:52;;;;;;;38.30;17.30;;;;;;;10.21;79.77;102452.91;5039714;28;20025;-75
2021/11/11 03:12:18;;;;;;;33.20;17.63;;;;;;;10.18;79.30;102446.69;5051142;28;20037;-74
2021/11/11 03:14:45;;;;;;;37.20;17.77;;;;;;;10.15;79.80;102451.00;5045574;28;20036;-75
2021/11/11 03:17:11;;;;;;;35.28;16.98;;;;;;;10.16;79.67;102451.88;5040431;28;20033;-74
2021/11/11 03:19:37;;;;;;;39.20;17.70;;;;;;;10.19;79.48;102449.34;5044378;28;20049;-75
2021/11/11 03:22:09;;;;;;;35.10;18.35;;;;;;;10.15;79.96;102445.75;5045135;28;20085;-74
2021/11/11 03:24:36;;;;;;;38.10;18.00;;;;;;;10.17;79.84;102447.50;5037177;28;20030;-73
2021/11/11 03:27:03;;;;;;;36.50;17.35;;;;;;;10.14;80.16;102451.84;5043833;28;20034;-74
2021/11/11 03:29:28;;;;;;;30.58;16.52;;;;;;;10.17;79.66;102452.75;5046207;28;20207;-74
2021/11/11 03:31:54;;;;;;;34.35;16.92;;;;;;;10.13;79.83;102455.34;5045044;28;20032;-74
2021/11/11 03:34:22;;;;;;;36.85;18.20;;;;;;;10.14;80.10;102456.22;5045092;28;20068;-73
2021/11/11 03:36:48;;;;;;;36.08;16.95;;;;;;;10.11;79.63;102454.41;5043395;28;20060;-75
2021/11/11 03:39:14;;;;;;;37.10;16.65;;;;;;;10.13;80.04;102459.69;5043871;28;20041;-74
2021/11/11 03:41:40;;;;;;;32.15;17.23;;;;;;;10.12;79.80;102453.53;5045597;28;20473;-73
2021/11/11 03:44:05;;;;;;;35.13;17.42;;;;;;;10.11;80.15;102453.50;5045763;28;20052;-75
2021/11/11 03:46:30;;;;;;;34.60;17.92;;;;;;;10.14;80.72;102462.34;5045421;28;20477;-75
2021/11/11 03:48:56;;;;;;;39.17;17.88;;;;;;;10.15;80.26;102458.88;5047989;28;20056;-74
2021/11/11 03:51:22;;;;;;;34.70;17.88;;;;;;;10.18;80.24;102457.19;5045588;28;20026;-75
2021/11/11 03:53:49;;;;;;;36.17;17.45;;;;;;;10.17;80.57;102458.03;5045813;28;20037;-74
2021/11/11 03:56:16;;;;;;;36.00;17.00;;;;;;;10.17;80.42;102452.75;5044632;28;20133;-75
2021/11/11 03:58:44;;;;;;;39.97;17.80;;;;;;;10.18;80.24;102463.31;5043967;28;20045;-74
2021/11/11 04:01:10;;;;;;;31.65;17.27;;;;;;;10.19;80.31;102459.84;5044903;28;20017;-74
2021/11/11 04:03:35;;;;;;;42.35;18.55;;;;;;;10.17;80.45;102460.66;5044529;28;20045;-74
2021/11/11 04:06:00;;;;;;;38.53;17.88;;;;;;;10.13;81.05;102451.78;5046148;28;20102;-74
2021/11/11 04:08:26;;;;;;;37.47;17.65;;;;;;;10.12;81.04;102453.53;5043880;28;20042;-74
2021/11/11 04:10:51;;;;;;;36.63;16.63;;;;;;;10.13;81.09;102470.19;5043532;28;20061;-74
2021/11/11 04:13:16;;;;;;;39.17;16.73;;;;;;;10.13;80.86;102464.94;5044890;28;20033;-75
2021/11/11 04:15:42;;;;;;;33.78;17.13;;;;;;;10.14;81.08;102469.34;5045038;28;20459;-74
2021/11/11 04:18:07;;;;;;;36.85;17.23;;;;;;;10.16;81.20;102470.28;5044892;28;20063;-74
2021/11/11 04:20:33;;;;;;;31.63;17.60;;;;;;;10.17;81.44;102471.16;5044723;28;20047;-73
2021/11/11 04:22:58;;;;;;;43.60;17.10;;;;;;;10.16;81.04;102467.66;5045101;28;20051;-75
2021/11/11 04:25:34;;;;;;;31.90;17.60;;;;;;;10.17;81.25;102469.44;5044007;28;20036;-74
2021/11/11 04:28:04;;;;;;;34.95;18.08;;;;;;;10.17;80.88;102469.44;5044790;28;20048;-74
2021/11/11 04:30:34;;;;;;;32.15;17.88;;;;;;;10.16;80.82;102470.28;5044067;28;20105;-74
2021/11/11 04:33:01;;;;;;;35.85;17.45;;;;;;;10.17;81.01;102471.16;5044361;28;20033;-75
2021/11/11 04:35:27;;;;;;;41.35;18.38;;;;;;;10.18;81.01;102462.44;5042418;28;20061;-75
2021/11/11 04:38:09;;;;;;;34.67;17.80;;;;;;;10.16;81.22;102470.28;5049906;28;20798;-74
2021/11/11 04:44:09;;;;;;;41.33;18.00;;;;;;;10.13;80.98;102457.03;5033953;28;20038;-75
2021/11/11 04:46:18;;;;;;;34.20;17.25;;;;;;;10.13;81.13;102457.97;5037274;28;20113;-75
2021/11/11 04:51:41;;;;;;;35.13;17.67;;;;;;;10.14;80.95;102464.97;5043082;28;20043;-74
2021/11/11 04:59:57;;;;;;;35.28;18.42;;;;;;;10.14;81.66;102466.72;5044274;28;20416;-75
2021/11/11 05:05:05;;;;;;;38.95;18.52;;;;;;;10.11;81.82;102464.91;5042814;28;20041;-74
2021/11/11 05:07:30;;;;;;;39.50;18.35;;;;;;;10.12;81.47;102466.66;5044251;28;20035;-74
2021/11/11 05:09:56;;;;;;;34.83;17.88;;;;;;;10.13;80.85;102462.31;5041330;28;20397;-75
2021/11/11 05:12:21;;;;;;;34.45;18.25;;;;;;;10.13;81.13;102463.22;5043347;28;20033;-74
2021/11/11 05:14:46;;;;;;;34.92;18.25;;;;;;;10.12;81.31;102466.66;5043784;28;20059;-74
2021/11/11 05:17:12;;;;;;;41.58;18.88;;;;;;;10.12;81.46;102463.16;5043823;28;20144;-75
2021/11/11 05:19:38;;;;;;;38.47;19.58;;;;;;;10.11;81.66;102472.78;5043673;28;20068;-74
2021/11/11 05:22:04;;;;;;;48.35;18.42;;;;;;;10.10;81.44;102465.75;5042514;28;20049;-75
2021/11/11 05:24:31;;;;;;;37.95;18.52;;;;;;;10.10;81.59;102475.38;5044329;28;20044;-75
2021/11/11 05:27:03;;;;;;;38.05;18.33;;;;;;;10.11;82.05;102479.75;5042179;28;20021;-75
2021/11/11 05:29:29;;;;;;;38.15;18.85;;;;;;;10.14;82.21;102471.97;5033939;28;20022;-73
2021/11/11 05:31:54;;;;;;;37.72;19.08;;;;;;;10.16;82.10;102470.28;5043626;28;20124;-74
2021/11/11 05:34:20;;;;;;;33.92;19.45;;;;;;;10.20;81.81;102471.25;5042125;28;20033;-74
2021/11/11 05:36:45;;;;;;;37.00;19.58;;;;;;;10.19;82.13;102475.63;5041887;28;20029;-74
2021/11/11 05:39:11;;;;;;;33.22;19.63;;;;;;;10.21;82.30;102470.38;5042102;28;20040;-74
2021/11/11 05:41:37;;;;;;;39.58;19.25;;;;;;;10.18;81.73;102475.56;5043267;28;20040;-74
2021/11/11 05:44:02;;;;;;;41.20;19.77;;;;;;;10.17;82.05;102471.16;5043511;28;20040;-75
2021/11/11 05:46:28;;;;;;;34.13;18.70;;;;;;;10.16;82.03;102470.28;5042862;28;20121;-75
2021/11/11 05:48:53;;;;;;;36.15;19.80;;;;;;;10.17;82.20;102476.41;5042554;28;20055;-75
2021/11/11 05:51:19;;;;;;;38.28;20.05;;;;;;;10.12;82.00;102469.31;5043482;28;20041;-74
2021/11/11 05:53:44;;;;;;;34.35;19.70;;;;;;;10.10;83.00;102473.63;5042818;28;20045;-75
2021/11/11 05:56:09;;;;;;;43.53;19.50;;;;;;;10.10;82.70;102470.13;5043635;28;20029;-74
2021/11/11 05:58:35;;;;;;;37.03;20.70;;;;;;;10.11;82.60;102474.50;5042798;28;20028;-74
2021/11/11 06:01:00;;;;;;;46.08;21.13;;;;;;;10.11;82.71;102469.25;5042294;28;20033;-73
2021/11/11 06:03:25;;;;;;;39.38;19.15;;;;;;;10.11;82.64;102477.13;5041683;28;20092;-75
2021/11/11 06:05:51;;;;;;;35.90;19.55;;;;;;;10.10;82.81;102480.63;5043401;28;20037;-75
2021/11/11 06:08:16;;;;;;;38.92;20.10;;;;;;;10.12;83.03;102479.81;5043118;28;20030;-75
2021/11/11 06:10:41;;;;;;;39.63;20.55;;;;;;;10.11;83.00;102478.06;5041770;28;20041;-75
2021/11/11 06:13:07;;;;;;;44.20;20.85;;;;;;;10.11;82.93;102477.13;5043422;28;20041;-75
2021/11/11 06:15:32;;;;;;;38.20;19.85;;;;;;;10.11;82.78;102485.00;5043697;28;20025;-75
2021/11/11 06:17:59;;;;;;;35.60;19.73;;;;;;;10.14;83.16;102488.63;5042883;28;20085;-74
2021/11/11 06:20:32;;;;;;;37.58;19.98;;;;;;;10.15;82.36;102486.88;5043246;28;20038;-75
2021/11/11 06:22:58;;;;;;;47.25;21.48;;;;;;;10.14;83.07;102493.88;5045072;28;20041;-74
2021/11/11 06:25:24;;;;;;;43.33;21.38;;;;;;;10.15;83.21;102492.13;5047197;28;20060;-74
2021/11/11 06:27:49;;;;;;;42.80;21.48;;;;;;;10.15;83.80;102498.28;5042476;28;20053;-75
2021/11/11 06:30:15;;;;;;;38.15;21.83;;;;;;;10.14;84.33;102493.00;5047648;28;20089;-75
2021/11/11 06:32:41;;;;;;;40.20;21.83;;;;;;;10.12;84.10;102490.31;5046907;28;20045;-75
2021/11/11 06:35:07;;;;;;;43.28;21.15;;;;;;;10.11;84.79;102493.81;5046402;28;20140;-75
2021/11/11 06:37:34;;;;;;;40.78;22.17;;;;;;;10.09;85.06;102498.13;5046690;28;20413;-75
2021/11/11 06:39:59;;;;;;;38.33;21.52;;;;;;;10.11;85.02;102495.53;5044077;28;20569;-75
2021/11/11 06:42:24;;;;;;;35.72;21.27;;;;;;;10.11;84.76;102504.31;5046327;28;20056;-74
2021/11/11 06:44:50;;;;;;;41.70;22.77;;;;;;;10.13;85.22;102506.97;5046610;28;20033;-74
2021/11/11 06:47:15;;;;;;;46.05;22.73;;;;;;;10.11;84.87;102509.56;5047069;28;20045;-74
2021/11/11 06:49:41;;;;;;;37.60;21.55;;;;;;;10.12;85.05;102520.94;5046144;28;20061;-74
2021/11/11 06:52:07;;;;;;;42.72;21.20;;;;;;;10.12;85.07;102519.22;5042835;28;20029;-74
2021/11/11 06:54:33;;;;;;;40.13;22.40;;;;;;;10.16;84.42;102517.56;5046091;28;20039;-74
2021/11/11 06:56:58;;;;;;;46.78;21.85;;;;;;;10.16;84.66;102520.19;5041164;28;20045;-74
2021/11/11 06:59:24;;;;;;;40.13;22.67;;;;;;;10.17;84.50;102523.69;5044772;28;20072;-74
2021/11/11 07:01:49;;;;;;;37.85;22.85;;;;;;;10.17;84.63;102518.44;5043875;28;20033;-74
2021/11/11 07:04:14;;;;;;;42.45;22.95;;;;;;;10.15;84.71;102527.19;5036738;28;20033;-75
2021/11/11 07:06:40;;;;;;;46.50;23.65;;;;;;;10.14;84.40;102528.00;5034840;28;20620;-75
2021/11/11 07:09:05;;;;;;;44.40;23.77;;;;;;;10.16;84.90;102525.44;5034303;28;20040;-74
2021/11/11 07:11:31;;;;;;;41.47;23.33;;;;;;;10.17;84.73;102518.44;5043131;28;20022;-74
2021/11/11 07:13:56;;;;;;;39.85;23.05;;;;;;;10.17;85.17;102528.94;5045760;28;20033;-73
2021/11/11 07:16:22;;;;;;;40.85;22.80;;;;;;;10.19;84.88;102529.88;5045869;28;20021;-73
2021/11/11 07:18:47;;;;;;;41.00;22.13;;;;;;;10.21;84.80;102536.97;5046240;28;20045;-74
2021/11/11 07:21:13;;;;;;;35.40;23.17;;;;;;;10.20;84.81;102539.53;5043902;28;20096;-73
2021/11/11 07:23:39;;;;;;;46.63;23.05;;;;;;;10.22;84.55;102538.72;5044794;28;20038;-73
2021/11/11 07:26:04;;;;;;;36.05;21.85;;;;;;;10.25;84.65;102540.56;5045431;28;20124;-73
2021/11/11 07:28:30;;;;;;;38.33;23.98;;;;;;;10.30;84.71;102536.31;5042704;28;20044;-74
2021/11/11 07:30:55;;;;;;;41.08;22.80;;;;;;;10.33;84.04;102544.31;5043435;28;20052;-71
2021/11/11 07:33:21;;;;;;;40.92;22.65;;;;;;;10.36;84.23;102543.50;5045250;28;20572;-71
2021/11/11 07:35:47;;;;;;;41.80;22.80;;;;;;;10.37;84.50;102550.53;5042307;28;20033;-69
2021/11/11 07:38:14;;;;;;;46.30;24.33;;;;;;;10.37;84.59;102550.53;5045446;28;20060;-73
2021/11/11 07:40:41;;;;;;;45.15;24.58;;;;;;;10.37;85.11;102545.28;5044229;28;20045;-72
2021/11/11 07:43:06;;;;;;;46.13;25.30;;;;;;;10.40;85.13;102542.75;5045671;28;20033;-72
2021/11/11 07:45:32;;;;;;;50.13;26.80;;;;;;;10.39;85.68;102549.72;5045264;28;20048;-72
2021/11/11 07:48:02;;;;;;;52.15;26.73;;;;;;;10.38;86.00;102550.59;5045767;28;20026;-74
2021/11/11 07:50:28;;;;;;;;;;;;;;;10.37;86.46;102554.06;5045432;28;20410;-73
2021/11/11 07:52:56;;;;;;;57.10;28.20;;;;;;;10.38;86.81;102552.31;5045840;28;19939;-72
2021/11/11 07:55:22;;;;;;;52.85;27.75;;;;;;;10.37;86.78;102556.69;5045266;28;20365;-73
2021/11/11 07:57:47;;;;;;;51.90;28.02;;;;;;;10.40;87.35;102561.16;5045657;28;20097;-73
2021/11/11 08:00:14;;;;;;;51.72;27.85;;;;;;;10.43;87.10;102556.81;5045105;28;20033;-73
2021/11/11 08:02:42;;;;;;;55.88;28.65;;;;;;;10.49;87.00;102558.72;5045518;28;20041;-73
2021/11/11 08:05:10;;;;;;;58.47;29.55;;;;;;;10.49;87.32;102553.47;5044724;28;20041;-72
2021/11/11 08:07:35;;;;;;;50.70;28.95;;;;;;;10.51;87.44;102560.56;5045219;28;20061;-72
2021/11/11 08:10:02;;;;;;;51.70;29.48;;;;;;;10.54;86.74;102551.88;5043047;28;20041;-73
2021/11/11 08:12:27;;;;;;;51.90;29.58;;;;;;;10.56;87.20;102549.28;5045553;28;20035;-73
2021/11/11 08:14:53;;;;;;;57.50;28.73;;;;;;;10.59;87.05;102552.00;5042821;28;20041;-72
2021/11/11 08:17:21;;;;;;;46.63;28.30;;;;;;;10.61;87.59;102550.28;5044784;28;20150;-73
2021/11/11 08:19:47;;;;;;;55.00;29.67;;;;;;;10.65;87.04;102549.53;5044519;28;20044;-73
2021/11/11 08:22:13;;;;;;;55.63;29.20;;;;;;;10.63;86.61;102541.59;5044396;28;20717;-73
2021/11/11 08:24:43;;;;;;;50.25;28.02;;;;;;;10.64;87.00;102543.38;5043175;28;20033;-73
2021/11/11 08:27:11;;;;;;;56.33;28.83;;;;;;;10.70;86.95;102537.38;5059258;28;20029;-73
2021/11/11 08:29:36;;;;;;;49.50;27.23;;;;;;;10.73;86.42;102546.22;5044806;28;20582;-73
2021/11/11 08:32:02;;;;;;;52.85;28.45;;;;;;;10.73;86.38;102542.69;5044792;28;20025;-73
2021/11/11 08:34:27;;;;;;;67.15;29.58;;;;;;;10.72;86.62;102544.44;5040741;28;20116;-73
2021/11/11 08:36:54;;;;;;;55.00;28.63;;;;;;;10.72;86.37;102539.19;5044817;28;20053;-73
2021/11/11 08:39:19;;;;;;;52.55;29.35;;;;;;;10.75;86.56;102542.75;5043119;28;20048;-74
2021/11/11 08:41:44;;;;;;;52.63;28.25;;;;;;;10.76;86.97;102542.78;5044549;28;20029;-73
2021/11/11 08:44:10;;;;;;;59.00;29.15;;;;;;;10.78;86.62;102546.34;5044592;28;20547;-73
2021/11/11 08:46:36;;;;;;;49.13;29.05;;;;;;;10.82;86.12;102542.94;5044486;28;20032;-73
2021/11/11 08:49:02;;;;;;;47.63;28.08;;;;;;;10.84;86.28;102546.47;5044004;28;20097;-72
2021/11/11 08:51:28;;;;;;;60.33;28.65;;;;;;;10.89;86.37;102559.75;5031049;28;20417;-73
2021/11/11 08:53:54;;;;;;;52.78;28.48;;;;;;;10.90;86.58;102554.50;5040730;28;20135;-72
2021/11/11 08:56:19;;;;;;;54.85;29.45;;;;;;;10.93;86.77;102556.34;5044985;28;20029;-72
2021/11/11 08:58:46;;;;;;;57.03;29.88;;;;;;;10.96;86.32;102558.16;5041014;28;20029;-72
2021/11/11 09:01:11;;;;;;;54.90;28.55;;;;;;;10.98;85.84;102559.06;5044536;28;20401;-71
2021/11/11 09:03:39;;;;;;;52.85;28.77;;;;;;;11.00;86.00;102554.75;5041110;28;20064;-73
2021/11/11 09:06:06;;;;;;;52.03;29.65;;;;;;;11.00;85.87;102550.38;5039502;28;20045;-72
2021/11/11 09:08:32;;;;;;;51.03;28.77;;;;;;;11.05;86.15;102553.13;5043407;28;20033;-73
2021/11/11 09:10:58;;;;;;;53.53;29.63;;;;;;;11.05;85.89;102553.13;5041136;28;20037;-70
2021/11/11 09:13:24;;;;;;;56.28;31.50;;;;;;;11.10;86.08;102557.63;5042871;28;20045;-70
2021/11/11 09:15:49;;;;;;;55.67;30.48;;;;;;;11.13;85.78;102564.69;5041136;28;20091;-72
2021/11/11 09:18:15;;;;;;;59.72;32.72;;;;;;;11.11;86.05;102561.16;5042079;28;20029;-72
2021/11/11 09:20:42;;;;;;;61.60;32.72;;;;;;;11.10;86.38;102562.00;5037600;28;20033;-72
2021/11/11 09:23:08;;;;;;;57.88;31.90;;;;;;;11.09;86.42;102555.84;5040807;28;20091;-73
2021/11/11 09:25:35;;;;;;;58.05;32.10;;;;;;;11.17;86.30;102561.31;5036765;28;20038;-72
2021/11/11 09:28:02;;;;;;;54.55;33.40;;;;;;;11.17;85.91;102549.88;5035268;28;20125;-71
2021/11/11 09:30:31;;;;;;;59.15;33.75;;;;;;;11.16;85.91;102556.00;5042513;28;20025;-72
2021/11/11 09:32:57;;;;;;;62.35;35.05;;;;;;;11.16;86.29;102564.78;5042817;28;20013;-73
2021/11/11 09:35:23;;;;;;;60.13;34.78;;;;;;;11.16;86.40;102559.53;5039437;28;20477;-73
2021/11/11 09:37:49;;;;;;;56.72;34.45;;;;;;;11.13;86.26;102559.44;5037439;28;20174;-71
2021/11/11 09:40:18;;;;;;;56.10;33.00;;;;;;;11.19;86.31;102563.94;5037630;28;20044;-72
2021/11/11 09:42:44;;;;;;;62.88;35.08;;;;;;;11.19;86.05;102563.94;5042499;28;20075;-71
2021/11/11 09:45:12;;;;;;;55.80;32.35;;;;;;;11.18;85.71;102564.81;5033790;28;20117;-71
2021/11/11 09:47:39;;;;;;;59.05;34.20;;;;;;;11.16;86.10;102561.28;5032400;28;20117;-71
2021/11/11 09:50:06;;;;;;;54.72;32.55;;;;;;;11.19;85.69;102556.97;5036628;28;20144;-72
2021/11/11 09:52:34;;;;;;;54.22;32.45;;;;;;;11.20;85.79;102558.72;5037416;28;20030;-71
2021/11/11 10:00:29;;;;;;;53.03;31.70;;;;;;;11.18;85.43;102556.94;5041506;28;20079;-74
2021/11/11 10:02:55;;;;;;;56.05;33.83;;;;;;;11.19;85.69;102561.31;5029594;28;20477;-74
2021/11/11 10:05:21;;;;;;;62.35;35.70;;;;;;;11.27;85.99;102559.78;5038541;28;20089;-73
2021/11/11 10:07:47;;;;;;;51.58;33.47;;;;;;;11.35;85.69;102559.94;5040046;28;20057;-74
2021/11/11 10:10:42;;;;;;;55.97;34.08;;;;;;;11.44;85.38;102568.94;5040910;28;20032;-73
2021/11/11 10:13:20;;;;;;;57.78;33.20;;;;;;;11.48;84.74;102565.50;5020205;28;20080;-74
2021/11/11 10:16:03;;;;;;;57.30;32.60;;;;;;;11.47;84.64;102568.09;5018687;28;20042;-73
2021/11/11 10:18:45;;;;;;;51.80;33.10;;;;;;;11.54;84.73;102561.25;5019772;28;20033;-74
2021/11/11 10:21:41;;;;;;;56.78;33.90;;;;;;;11.55;85.06;102569.19;4976990;28;1087941;-74
2021/11/11 10:24:15;;;;;;;51.22;31.08;;;;;;;11.63;84.08;102567.59;5018105;28;20101;-72
2021/11/11 10:26:47;;;;;;;53.03;32.53;;;;;;;11.62;84.19;102578.97;5020192;28;20030;-73
2021/11/11 10:29:40;;;;;;;55.00;33.05;;;;;;;11.61;84.31;102582.47;5019786;28;20145;-73
2021/11/11 10:32:20;;;;;;;49.75;32.00;;;;;;;11.71;84.17;102580.91;5021199;28;20091;-73
2021/11/11 10:34:45;;;;;;;51.75;32.25;;;;;;;11.71;83.70;102586.19;5019748;28;20030;-73
2021/11/11 10:37:11;;;;;;;48.30;31.67;;;;;;;11.68;83.41;102579.13;5020439;28;20117;-72
2021/11/11 10:39:41;;;;;;;49.28;30.90;;;;;;;11.68;83.83;102573.84;5020829;28;20064;-73
2021/11/11 10:42:17;;;;;;;47.47;31.75;;;;;;;11.65;83.47;102578.16;5021114;28;20042;-73
2021/11/11 10:44:43;;;;;;;49.83;30.83;;;;;;;11.64;83.79;102569.34;5020658;28;20042;-73
2021/11/11 10:47:10;;;;;;;51.75;30.95;;;;;;;11.68;83.71;102571.22;5019886;28;20136;-74
2021/11/11 10:49:40;;;;;;;49.47;31.00;;;;;;;11.74;83.78;102575.72;5022828;28;20044;-73
2021/11/11 10:52:27;;;;;;;44.47;30.58;;;;;;;11.75;83.28;102564.31;5058288;28;20507;-73
2021/11/11 10:55:04;;;;;;;53.55;31.77;;;;;;;11.76;83.13;102575.72;5038947;28;20030;-73
2021/11/11 10:57:43;;;;;;;49.95;32.20;;;;;;;11.76;83.13;102563.47;5039951;28;20075;-73
2021/11/11 11:00:27;;;;;;;50.33;31.25;;;;;;;11.83;82.94;102572.38;5048860;28;20109;-73
2021/11/11 11:03:22;;;;;;;52.63;32.33;;;;;;;11.77;83.57;102574.91;5036885;28;20433;-73
2021/11/11 11:06:11;;;;;;;50.45;30.27;;;;;;;11.80;83.20;102572.34;5036921;28;20080;-72
2021/11/11 11:08:43;;;;;;;45.75;29.65;;;;;;;11.80;83.46;102570.59;5045264;28;20029;-73
2021/11/11 11:11:11;;;;;;;44.85;30.73;;;;;;;11.85;83.49;102565.41;5046874;28;20053;-74
2021/11/11 11:13:55;;;;;;;50.05;31.38;;;;;;;11.84;83.76;102564.50;5045786;28;20167;-72
2021/11/11 11:16:26;;;;;;;52.13;30.40;;;;;;;11.83;82.81;102565.38;5045895;28;20138;-73
2021/11/11 11:18:58;;;;;;;48.67;31.52;;;;;;;11.85;83.33;102565.41;5039185;28;20029;-74
2021/11/11 11:21:28;;;;;;;46.60;30.42;;;;;;;11.85;83.22;102558.41;5045702;28;20045;-73
2021/11/11 11:23:59;;;;;;;43.90;29.50;;;;;;;11.89;83.26;102562.91;5049825;28;20489;-73
2021/11/11 11:26:34;;;;;;;45.47;29.58;;;;;;;11.94;82.88;102562.09;5046511;28;20025;-72
2021/11/11 11:31:53;;;;;;;49.30;30.02;;;;;;;11.91;82.56;102555.03;5043139;28;20033;-72
2021/11/11 11:34:27;;;;;;;49.55;29.58;;;;;;;11.93;82.85;102550.69;5040677;28;20472;-72